Time;durP1;ratioP1;P1;durP2;ratioP2;P2;SDS_P1;SDS_P2;PMS_P1;PMS_P2;Temp;Humidity;BMP_temperature;BMP_pressure;BME280_temperature;BME280_humidity;BME280_pressure;Samples;Min_cycle;Max_cycle;Signal;HPM_P1;HPM_P2
2021/01/08 00:01:08;;;;;;;169.00;41.90;;;4.20;93.80;;;;;;5016666;28;20415;-85
2021/01/08 00:03:35;;;;;;;268.67;46.77;;;4.20;93.80;;;;;;5002618;28;20207;-85
2021/01/08 00:06:01;;;;;;;160.87;41.80;;;4.10;93.80;;;;;;4999741;28;20658;-85
2021/01/08 00:08:28;;;;;;;114.27;35.27;;;4.10;93.80;;;;;;5016264;28;20227;-85
2021/01/08 00:10:56;;;;;;;114.57;35.10;;;4.00;93.90;;;;;;5016284;28;20551;-85
2021/01/08 00:13:23;;;;;;;160.80;42.37;;;4.00;93.90;;;;;;5016016;28;20331;-85
2021/01/08 00:15:50;;;;;;;92.73;36.17;;;4.00;93.90;;;;;;5017088;28;20216;-85
2021/01/08 00:18:20;;;;;;;107.30;37.63;;;4.00;93.90;;;;;;4997960;28;20224;-85
2021/01/08 00:20:47;;;;;;;227.70;43.03;;;4.00;93.90;;;;;;5017496;28;20226;-85
2021/01/08 00:23:13;;;;;;;153.43;39.57;;;4.00;93.90;;;;;;5013828;28;20208;-86
2021/01/08 00:25:40;;;;;;;104.87;39.70;;;3.90;93.80;;;;;;4999517;28;20216;-85
2021/01/08 00:28:09;;;;;;;100.00;36.83;;;3.80;93.80;;;;;;5000989;28;20654;-85
2021/01/08 00:30:45;;;;;;;93.27;34.80;;;3.80;93.90;;;;;;5001334;28;20266;-86
2021/01/08 00:33:13;;;;;;;68.20;37.37;;;3.80;94.00;;;;;;5000599;28;20240;-85
2021/01/08 00:35:40;;;;;;;56.93;34.50;;;3.80;94.00;;;;;;4999735;28;20232;-85
2021/01/08 00:38:08;;;;;;;55.53;33.20;;;3.80;94.10;;;;;;5000153;28;20228;-85
2021/01/08 00:40:35;;;;;;;56.77;34.17;;;3.80;94.10;;;;;;5017647;28;20217;-85
2021/01/08 00:43:01;;;;;;;52.23;32.53;;;3.80;94.10;;;;;;4995873;28;20259;-85
2021/01/08 00:45:29;;;;;;;54.40;33.83;;;3.80;94.10;;;;;;5012457;28;20347;-85
2021/01/08 00:47:57;;;;;;;60.53;34.83;;;3.90;94.10;;;;;;4996111;28;20651;-85
2021/01/08 00:50:23;;;;;;;47.50;32.50;;;3.80;94.00;;;;;;5012215;28;20213;-85
2021/01/08 00:52:53;;;;;;;54.63;33.00;;;3.80;94.00;;;;;;5013710;28;20208;-85
2021/01/08 00:55:20;;;;;;;58.87;33.70;;;3.80;94.10;;;;;;5016185;28;20655;-85
2021/01/08 00:57:47;;;;;;;51.50;33.23;;;3.70;94.10;;;;;;5001678;28;20690;-85
2021/01/08 01:00:14;;;;;;;51.97;32.20;;;3.70;94.50;;;;;;5019945;28;20208;-85
2021/01/08 01:02:43;;;;;;;49.03;32.70;;;3.80;94.20;;;;;;5008513;28;20217;-85
2021/01/08 01:05:11;;;;;;;48.30;30.57;;;3.80;94.20;;;;;;5000631;28;20208;-85
2021/01/08 01:07:37;;;;;;;48.00;31.13;;;3.80;94.40;;;;;;4999885;28;20217;-85
2021/01/08 01:10:05;;;;;;;48.23;30.80;;;3.90;94.20;;;;;;4996769;28;20613;-85
2021/01/08 01:12:32;;;;;;;48.80;30.30;;;3.90;94.10;;;;;;4979898;28;20300;-85
2021/01/08 01:15:00;;;;;;;44.87;30.30;;;3.90;94.10;;;;;;4984423;28;20524;-85
2021/01/08 01:17:27;;;;;;;51.17;33.47;;;3.80;94.10;;;;;;5008979;28;20212;-85
2021/01/08 01:19:54;;;;;;;54.63;32.37;;;3.80;94.10;;;;;;5002600;28;20213;-85
2021/01/08 01:22:20;;;;;;;48.67;31.73;;;3.80;94.00;;;;;;4999326;28;20219;-86
2021/01/08 01:24:48;;;;;;;49.53;31.73;;;3.80;94.10;;;;;;4999708;28;20220;-85
2021/01/08 01:27:14;;;;;;;46.67;31.37;;;3.80;94.10;;;;;;4999281;28;20295;-85
2021/01/08 01:29:41;;;;;;;52.67;33.37;;;3.80;94.10;;;;;;4999380;28;20215;-85
2021/01/08 01:32:08;;;;;;;48.20;30.70;;;3.80;94.10;;;;;;4999256;28;20275;-85
2021/01/08 01:34:35;;;;;;;48.63;31.77;;;3.80;94.10;;;;;;5015647;28;20255;-85
2021/01/08 01:37:02;;;;;;;51.37;31.53;;;3.80;94.00;;;;;;4999332;28;20203;-85
2021/01/08 01:39:29;;;;;;;46.00;30.33;;;3.80;94.00;;;;;;4995588;28;20284;-85
2021/01/08 01:41:57;;;;;;;51.47;31.93;;;3.80;94.00;;;;;;4982566;28;20270;-85
2021/01/08 01:44:24;;;;;;;46.67;30.10;;;3.80;94.00;;;;;;5034146;28;20295;-85
2021/01/08 01:46:51;;;;;;;44.53;29.33;;;3.70;94.00;;;;;;5010969;28;20567;-85
2021/01/08 01:49:17;;;;;;;44.77;28.60;;;3.80;94.00;;;;;;4999740;28;20559;-85
2021/01/08 01:51:45;;;;;;;47.17;30.77;;;3.80;94.00;;;;;;4999263;28;20644;-86
2021/01/08 01:54:12;;;;;;;50.40;31.20;;;3.70;94.00;;;;;;4999809;28;20307;-85
2021/01/08 01:56:39;;;;;;;48.53;30.03;;;3.70;94.00;;;;;;4996322;28;20630;-85
2021/01/08 01:59:26;;;;;;;49.20;30.30;;;3.70;94.00;;;;;;4995929;28;20255;-85
2021/01/08 02:02:43;;;;;;;44.40;30.00;;;3.70;94.00;;;;;;4988297;28;20223;-85
2021/01/08 02:05:30;;;;;;;49.77;30.30;;;3.70;94.30;;;;;;4998215;28;20294;-85
2021/01/08 02:08:21;;;;;;;47.77;30.80;;;3.70;94.00;;;;;;4987078;28;20662;-86
2021/01/08 02:11:10;;;;;;;46.33;30.20;;;3.70;94.00;;;;;;4993461;28;20220;-85
2021/01/08 02:14:17;;;;;;;50.40;31.77;;;3.70;94.00;;;;;;4994578;28;20232;-85
2021/01/08 02:17:01;;;;;;;48.33;30.50;;;3.70;94.00;;;;;;4981165;28;20208;-85
2021/01/08 02:19:53;;;;;;;48.30;30.63;;;3.70;94.00;;;;;;5002312;28;20212;-86
2021/01/08 02:22:58;;;;;;;48.87;30.77;;;3.70;94.00;;;;;;4995853;28;20197;-85
2021/01/08 02:25:41;;;;;;;44.70;29.80;;;3.70;94.00;;;;;;4998562;28;20212;-85
2021/01/08 02:28:26;;;;;;;46.40;31.33;;;3.70;94.00;;;;;;5012225;28;20287;-85
2021/01/08 02:31:07;;;;;;;47.07;30.93;;;3.70;94.00;;;;;;4998505;28;20212;-85
2021/01/08 02:33:49;;;;;;;44.17;30.17;;;3.70;94.00;;;;;;4993336;28;20212;-85
2021/01/08 02:36:37;;;;;;;49.60;32.13;;;3.70;94.00;;;;;;5001019;28;20221;-85
2021/01/08 02:39:20;;;;;;;52.23;32.00;;;3.70;94.00;;;;;;4999699;28;20310;-85
2021/01/08 02:42:02;;;;;;;51.03;31.83;;;3.80;94.00;;;;;;5001637;28;20243;-85
2021/01/08 02:44:44;;;;;;;53.77;33.73;;;3.80;94.00;;;;;;5018699;28;20239;-85
2021/01/08 02:47:25;;;;;;;51.83;31.60;;;3.90;94.00;;;;;;5015207;28;20192;-85
2021/01/08 02:50:07;;;;;;;48.63;31.73;;;3.90;93.90;;;;;;5002845;28;20212;-85
2021/01/08 02:52:53;;;;;;;53.63;33.20;;;3.90;93.90;;;;;;5002634;28;20207;-85
2021/01/08 02:55:27;;;;;;;49.67;32.57;;;4.00;93.90;;;;;;5017046;28;20623;-85
2021/01/08 02:58:08;;;;;;;54.33;32.13;;;4.00;93.90;;;;;;5017336;28;20602;-85
2021/01/08 03:00:52;;;;;;;50.70;32.37;;;4.00;94.00;;;;;;5011752;28;20215;-85
2021/01/08 03:03:59;;;;;;;53.80;34.00;;;4.10;93.90;;;;;;5011493;28;20294;-85
2021/01/08 03:06:51;;;;;;;52.87;33.60;;;4.10;93.90;;;;;;5009009;28;20251;-85
2021/01/08 03:09:52;;;;;;;54.23;33.30;;;4.20;93.90;;;;;;5007343;28;20207;-85
2021/01/08 03:12:35;;;;;;;55.37;32.93;;;4.20;93.90;;;;;;4999601;28;20200;-85
2021/01/08 03:15:16;;;;;;;50.37;32.97;;;4.30;93.90;;;;;;4989513;28;20282;-85
2021/01/08 03:18:06;;;;;;;51.83;32.43;;;4.30;93.80;;;;;;5016449;28;20732;-85
2021/01/08 03:20:52;;;;;;;53.43;33.27;;;4.30;93.90;;;;;;5018129;28;20223;-85
2021/01/08 03:23:59;;;;;;;54.17;33.20;;;4.30;93.80;;;;;;5004142;28;20207;-85
2021/01/08 03:27:00;;;;;;;48.17;31.00;;;4.40;93.90;;;;;;5000774;28;20220;-85
2021/01/08 03:30:07;;;;;;;51.47;32.27;;;4.40;93.80;;;;;;4984698;28;20196;-85
2021/01/08 03:32:49;;;;;;;54.93;32.93;;;4.40;93.80;;;;;;5005644;28;20235;-85
2021/01/08 03:35:32;;;;;;;57.27;34.30;;;4.40;93.80;;;;;;5018223;28;20225;-86
2021/01/08 03:38:14;;;;;;;52.87;33.53;;;4.40;93.80;;;;;;5003427;28;20239;-85
2021/01/08 03:40:57;;;;;;;51.13;33.40;;;4.40;93.80;;;;;;5003282;28;20656;-85
2021/01/08 03:43:44;;;;;;;48.63;32.00;;;4.40;93.80;;;;;;5002515;28;20236;-86
2021/01/08 03:46:40;;;;;;;48.17;32.40;;;4.40;93.80;;;;;;5020884;28;20716;-85
2021/01/08 03:49:49;;;;;;;54.83;34.03;;;4.40;93.80;;;;;;5017440;28;20234;-85
2021/01/08 03:52:31;;;;;;;50.63;32.30;;;4.40;93.80;;;;;;4996805;28;20286;-85
2021/01/08 03:55:15;;;;;;;56.57;33.63;;;4.40;93.90;;;;;;5014668;28;20223;-85
2021/01/08 03:57:56;;;;;;;57.47;34.23;;;4.40;93.90;;;;;;5018733;28;20373;-84
2021/01/08 04:00:39;;;;;;;49.37;33.53;;;4.40;93.90;;;;;;5004202;28;20219;-85
2021/01/08 04:03:24;;;;;;;49.77;32.23;;;4.40;93.90;;;;;;5002098;28;20207;-85
2021/01/08 04:06:08;;;;;;;49.23;33.73;;;4.40;93.90;;;;;;5025353;28;20222;-84
2021/01/08 04:08:59;;;;;;;51.93;34.60;;;4.30;93.90;;;;;;4972497;28;20208;-85
2021/01/08 04:11:40;;;;;;;50.63;33.23;;;4.30;93.90;;;;;;4995268;28;20606;-85
2021/01/08 04:14:21;;;;;;;58.70;36.27;;;4.30;94.00;;;;;;5002512;28;20211;-85
2021/01/08 04:17:02;;;;;;;56.60;36.43;;;4.30;94.00;;;;;;5000998;28;20215;-85
2021/01/08 04:19:44;;;;;;;53.40;33.20;;;4.30;94.00;;;;;;5015685;28;20227;-85
2021/01/08 04:22:25;;;;;;;59.33;35.03;;;4.30;94.00;;;;;;4998328;28;20197;-85
2021/01/08 04:25:06;;;;;;;55.73;35.93;;;4.20;94.00;;;;;;4998231;28;20223;-85
2021/01/08 04:27:41;;;;;;;52.87;34.17;;;4.20;94.00;;;;;;5015817;28;20215;-85
2021/01/08 04:30:23;;;;;;;57.80;36.00;;;4.20;94.00;;;;;;5010854;28;20207;-84
2021/01/08 04:33:07;;;;;;;54.80;36.17;;;4.20;94.00;;;;;;5017152;28;20226;-85
2021/01/08 04:35:47;;;;;;;62.47;36.50;;;4.20;94.00;;;;;;4982204;28;20248;-85
2021/01/08 04:38:28;;;;;;;57.57;36.47;;;4.20;94.00;;;;;;4995404;28;20239;-85
2021/01/08 04:40:57;;;;;;;59.33;37.83;;;4.20;94.00;;;;;;5016186;28;20218;-85
2021/01/08 04:43:27;;;;;;;58.57;36.90;;;4.10;94.00;;;;;;5015241;28;20235;-85
2021/01/08 04:46:03;;;;;;;55.13;36.97;;;4.10;94.00;;;;;;5002691;28;20235;-85
2021/01/08 04:48:44;;;;;;;57.60;37.13;;;4.10;94.10;;;;;;4993365;28;20212;-85
2021/01/08 04:51:25;;;;;;;61.23;37.53;;;4.00;94.10;;;;;;4995603;28;20247;-85
2021/01/08 04:53:53;;;;;;;55.17;37.47;;;4.00;94.10;;;;;;4996955;28;20231;-85
2021/01/08 04:56:32;;;;;;;58.17;34.97;;;4.00;94.10;;;;;;5001638;28;20275;-85
2021/01/08 04:59:12;;;;;;;59.80;38.33;;;3.90;94.10;;;;;;4984467;28;20243;-85
2021/01/08 05:01:54;;;;;;;58.60;37.97;;;3.90;94.20;;;;;;5015294;28;20548;-84
2021/01/08 05:04:35;;;;;;;61.17;36.73;;;3.80;94.20;;;;;;5001634;28;20200;-86
2021/01/08 05:07:18;;;;;;;63.43;38.10;;;3.80;94.20;;;;;;5001601;28;20274;-85
2021/01/08 05:09:44;;;;;;;58.83;36.27;;;3.80;94.30;;;;;;4999067;28;20219;-85
2021/01/08 05:12:11;;;;;;;57.77;37.27;;;3.70;94.30;;;;;;4999527;28;20219;-85
2021/01/08 05:14:43;;;;;;;59.77;36.60;;;3.70;94.30;;;;;;5015791;28;20639;-85
2021/01/08 05:17:31;;;;;;;60.47;38.17;;;3.60;94.30;;;;;;5014826;28;20203;-85
2021/01/08 05:20:12;;;;;;;55.10;36.17;;;3.60;94.40;;;;;;4980800;28;20208;-85
2021/01/08 05:22:57;;;;;;;61.40;36.87;;;3.50;94.40;;;;;;4981462;28;20244;-85
2021/01/08 05:25:48;;;;;;;58.93;36.90;;;3.50;94.40;;;;;;4987801;28;20212;-85
2021/01/08 05:28:31;;;;;;;55.30;35.47;;;3.40;94.40;;;;;;5015152;28;20271;-85
2021/01/08 05:31:14;;;;;;;56.00;36.27;;;3.40;94.40;;;;;;4997228;28;20200;-85
2021/01/08 05:33:56;;;;;;;67.07;36.97;;;3.30;94.40;;;;;;4995885;28;20270;-85
2021/01/08 05:36:48;;;;;;;60.30;35.03;;;3.30;94.50;;;;;;4997275;28;20204;-85
2021/01/08 05:39:20;;;;;;;53.70;35.87;;;3.30;94.50;;;;;;5003781;28;20246;-85
2021/01/08 05:42:01;;;;;;;66.30;39.33;;;3.20;94.50;;;;;;5000364;28;20204;-85
2021/01/08 05:44:35;;;;;;;65.53;37.43;;;3.20;94.50;;;;;;5008440;28;20208;-85
2021/01/08 05:47:17;;;;;;;59.47;36.63;;;3.20;94.50;;;;;;5003118;28;20544;-85
2021/01/08 05:50:00;;;;;;;65.43;37.43;;;3.20;94.50;;;;;;5004643;28;20223;-85
2021/01/08 05:52:42;;;;;;;65.83;38.10;;;3.10;94.50;;;;;;5021484;28;20610;-85
2021/01/08 05:55:27;;;;;;;61.73;37.03;;;3.10;94.50;;;;;;4999088;28;20299;-85
2021/01/08 05:58:22;;;;;;;60.90;37.63;;;3.10;94.60;;;;;;4986002;28;20239;-85
2021/01/08 06:01:26;;;;;;;65.23;38.43;;;3.10;94.60;;;;;;4998433;28;20215;-85
2021/01/08 06:04:08;;;;;;;65.53;37.10;;;3.10;94.60;;;;;;5019769;28;20215;-85
2021/01/08 06:06:43;;;;;;;58.53;35.37;;;3.10;94.50;;;;;;5002580;28;20624;-85
2021/01/08 06:09:15;;;;;;;67.53;37.87;;;3.00;94.60;;;;;;5018436;28;20250;-86
2021/01/08 06:11:47;;;;;;;65.63;37.53;;;3.00;94.60;;;;;;5020334;28;20277;-85
2021/01/08 06:14:17;;;;;;;61.40;36.93;;;3.00;94.60;;;;;;5004656;28;20199;-85
2021/01/08 06:16:48;;;;;;;74.27;40.03;;;3.00;94.60;;;;;;5020639;28;20648;-86
2021/01/08 06:19:16;;;;;;;67.03;37.97;;;3.00;94.60;;;;;;5019049;28;20259;-85
2021/01/08 06:21:45;;;;;;;59.47;35.97;;;3.00;94.60;;;;;;5019488;28;20215;-85
2021/01/08 06:24:32;;;;;;;58.10;36.07;;;3.00;94.60;;;;;;5000199;28;20216;-85
2021/01/08 06:27:02;;;;;;;60.33;35.77;;;3.00;94.60;;;;;;5018973;28;20204;-85
2021/01/08 06:29:33;;;;;;;59.43;35.60;;;3.00;94.60;;;;;;5018895;28;20235;-85
2021/01/08 06:32:16;;;;;;;65.10;36.47;;;2.90;94.50;;;;;;5019335;28;20531;-85
2021/01/08 06:34:47;;;;;;;59.13;35.67;;;2.90;94.60;;;;;;5020292;28;20203;-85
2021/01/08 06:37:23;;;;;;;59.40;34.60;;;2.90;94.60;;;;;;5020592;28;20226;-86
2021/01/08 06:39:56;;;;;;;62.53;36.60;;;2.80;94.60;;;;;;5020120;28;20243;-86
2021/01/08 06:42:30;;;;;;;64.77;37.17;;;2.80;94.60;;;;;;5019779;28;20585;-85
2021/01/08 06:44:59;;;;;;;59.27;35.80;;;2.80;94.60;;;;;;5020344;28;20231;-85
2021/01/08 06:47:28;;;;;;;58.20;34.07;;;2.80;94.60;;;;;;5021123;28;20211;-85
2021/01/08 06:49:58;;;;;;;61.47;36.00;;;2.80;94.60;;;;;;5020376;28;20216;-85
2021/01/08 06:52:29;;;;;;;60.33;35.20;;;2.80;94.60;;;;;;5002810;28;20216;-85
2021/01/08 06:54:56;;;;;;;60.20;36.47;;;2.70;94.60;;;;;;5020033;28;20660;-85
2021/01/08 06:57:23;;;;;;;75.17;37.53;;;2.70;94.60;;;;;;5002820;28;20215;-85
2021/01/08 07:00:06;;;;;;;62.67;34.97;;;2.70;94.60;;;;;;5003536;28;20222;-85
2021/01/08 07:02:37;;;;;;;71.77;36.93;;;2.70;94.60;;;;;;5003051;28;20208;-85
2021/01/08 07:05:05;;;;;;;63.90;35.07;;;2.70;94.60;;;;;;5018600;28;20196;-85
2021/01/08 07:07:34;;;;;;;68.60;38.20;;;2.70;94.60;;;;;;5003336;28;20210;-85
2021/01/08 07:10:24;;;;;;;62.87;35.17;;;2.60;94.60;;;;;;5019190;28;20219;-85
2021/01/08 07:12:57;;;;;;;63.00;35.97;;;2.60;94.60;;;;;;4999547;28;20189;-85
2021/01/08 07:15:32;;;;;;;70.30;37.03;;;2.60;94.60;;;;;;4983947;28;20196;-85
2021/01/08 07:17:59;;;;;;;63.73;36.47;;;2.60;94.60;;;;;;5017544;28;20555;-85
2021/01/08 07:20:52;;;;;;;53.27;34.23;;;2.70;94.70;;;;;;5019175;28;20231;-85
2021/01/08 07:23:43;;;;;;;61.97;34.73;;;2.70;94.70;;;;;;4992763;28;20547;-84
2021/01/08 07:26:11;;;;;;;64.00;37.23;;;2.70;94.60;;;;;;5002095;28;20270;-85
2021/01/08 07:28:37;;;;;;;60.93;35.87;;;2.80;94.60;;;;;;5001826;28;20235;-85
2021/01/08 07:31:10;;;;;;;63.73;36.43;;;2.90;94.60;;;;;;5019264;28;20211;-85
2021/01/08 07:33:48;;;;;;;67.40;37.03;;;2.90;94.60;;;;;;5002739;28;20254;-85
2021/01/08 07:36:25;;;;;;;64.47;36.57;;;3.00;94.50;;;;;;5002897;28;20191;-86
2021/01/08 07:38:53;;;;;;;60.27;36.83;;;3.10;94.50;;;;;;5003420;28;20311;-85
2021/01/08 07:41:38;;;;;;;54.73;35.53;;;3.20;94.40;;;;;;5002934;28;20282;-85
2021/01/08 07:44:31;;;;;;;61.73;35.90;;;3.20;94.40;;;;;;5002180;28;20250;-85
2021/01/08 07:47:18;;;;;;;57.40;33.27;;;3.30;94.30;;;;;;5002198;28;20242;-85
2021/01/08 07:50:03;;;;;;;70.37;36.17;;;3.30;94.20;;;;;;5001378;28;20217;-85
2021/01/08 07:52:50;;;;;;;59.80;34.00;;;3.40;94.20;;;;;;5001744;28;20707;-85
2021/01/08 07:56:05;;;;;;;59.27;33.27;;;3.40;94.20;;;;;;5001967;28;20234;-85
2021/01/08 07:58:36;;;;;;;56.13;34.13;;;3.50;94.00;;;;;;4965868;28;20236;-85
2021/01/08 08:01:05;;;;;;;63.17;33.80;;;3.50;93.80;;;;;;4982634;28;20213;-86
2021/01/08 08:03:35;;;;;;;57.17;35.83;;;3.50;93.70;;;;;;4981732;28;20212;-85
2021/01/08 08:06:07;;;;;;;60.10;34.93;;;3.60;93.80;;;;;;4989980;28;20598;-85
2021/01/08 08:08:39;;;;;;;60.33;34.67;;;3.60;93.80;;;;;;5002155;28;20279;-85
2021/01/08 08:11:11;;;;;;;58.30;35.03;;;3.70;94.10;;;;;;4987101;28;20290;-85
2021/01/08 08:13:44;;;;;;;58.60;35.13;;;3.70;93.70;;;;;;5001222;28;20230;-85
2021/01/08 08:16:11;;;;;;;53.80;33.90;;;3.80;93.70;;;;;;5001590;28;20203;-85
2021/01/08 08:19:06;;;;;;;59.67;34.40;;;3.90;93.60;;;;;;5001164;28;20327;-85
2021/01/08 08:21:33;;;;;;;60.20;32.93;;;3.90;93.50;;;;;;4994943;28;20212;-85
2021/01/08 08:24:01;;;;;;;54.87;34.07;;;4.00;93.50;;;;;;5017466;28;20511;-85
2021/01/08 08:26:51;;;;;;;60.77;37.13;;;4.00;93.40;;;;;;5017763;28;20704;-85
2021/01/08 08:29:18;;;;;;;65.57;36.60;;;4.10;93.40;;;;;;5017135;28;20686;-84
2021/01/08 08:31:50;;;;;;;59.47;35.77;;;4.20;93.30;;;;;;5000707;28;20222;-84
2021/01/08 08:34:32;;;;;;;62.23;36.47;;;4.30;93.20;;;;;;5001717;28;20229;-85
2021/01/08 08:37:07;;;;;;;56.10;32.77;;;4.40;93.20;;;;;;5001973;28;20601;-85
2021/01/08 08:39:34;;;;;;;53.23;35.00;;;4.50;93.10;;;;;;5000480;28;20241;-84
2021/01/08 08:42:01;;;;;;;62.60;36.33;;;4.60;93.00;;;;;;5000683;28;20200;-85
2021/01/08 08:44:30;;;;;;;56.83;33.87;;;4.70;92.90;;;;;;5017201;28;20192;-85
2021/01/08 08:46:58;;;;;;;58.60;35.07;;;4.70;92.80;;;;;;4997223;28;20628;-84
2021/01/08 08:49:30;;;;;;;57.13;34.40;;;4.70;92.70;;;;;;4990654;28;20216;-84
2021/01/08 08:51:57;;;;;;;59.00;34.90;;;4.80;92.60;;;;;;5013053;28;20254;-84
2021/01/08 08:54:25;;;;;;;49.47;32.70;;;4.90;92.60;;;;;;5001787;28;20528;-85
2021/01/08 08:56:53;;;;;;;55.10;34.47;;;4.90;92.50;;;;;;5001210;28;20216;-85
2021/01/08 08:59:35;;;;;;;53.10;33.97;;;5.00;92.50;;;;;;5007356;28;20674;-84
2021/01/08 09:02:03;;;;;;;57.30;33.13;;;5.10;92.40;;;;;;4982901;28;20227;-85
2021/01/08 09:04:30;;;;;;;55.13;34.00;;;5.10;92.30;;;;;;5017122;28;20223;-85
2021/01/08 09:07:01;;;;;;;48.47;32.30;;;5.20;92.20;;;;;;5017016;28;20304;-85
2021/01/08 09:09:35;;;;;;;54.63;35.40;;;5.30;92.10;;;;;;5001164;28;20335;-84
2021/01/08 09:12:34;;;;;;;53.00;33.37;;;5.30;92.10;;;;;;5017628;28;20214;-85
2021/01/08 09:15:10;;;;;;;44.30;29.07;;;5.40;92.00;;;;;;5007932;28;20250;-86
2021/01/08 09:17:42;;;;;;;50.93;31.17;;;5.50;91.80;;;;;;5022485;28;20568;-84
2021/01/08 09:20:14;;;;;;;46.83;31.73;;;5.60;91.60;;;;;;5019597;28;20235;-84
2021/01/08 09:22:41;;;;;;;37.83;25.83;;;5.60;91.60;;;;;;5003589;28;20549;-84
2021/01/08 09:25:09;;;;;;;41.77;28.43;;;5.70;91.40;;;;;;5003595;28;20223;-85
2021/01/08 09:27:36;;;;;;;43.83;29.53;;;5.80;91.30;;;;;;5018198;28;20230;-86
2021/01/08 09:30:08;;;;;;;43.43;28.77;;;5.90;91.20;;;;;;5020193;28;20220;-84
2021/01/08 09:32:35;;;;;;;40.40;24.97;;;5.90;91.10;;;;;;5002697;28;20554;-84
2021/01/08 09:35:10;;;;;;;34.80;23.50;;;6.00;90.70;;;;;;5017613;28;20235;-84
2021/01/08 09:37:50;;;;;;;31.00;22.27;;;6.00;90.40;;;;;;5020040;28;20219;-85
2021/01/08 09:40:18;;;;;;;30.83;20.73;;;6.10;90.50;;;;;;4989944;28;20196;-83
2021/01/08 09:42:46;;;;;;;32.07;21.37;;;6.10;90.00;;;;;;5021435;28;20309;-85
2021/01/08 09:45:21;;;;;;;31.47;22.10;;;6.20;89.50;;;;;;5022083;28;20212;-85
2021/01/08 09:47:49;;;;;;;30.63;20.60;;;6.20;89.00;;;;;;5015855;28;20303;-85
2021/01/08 09:50:29;;;;;;;28.73;20.63;;;6.30;89.00;;;;;;5018651;28;20212;-84
2021/01/08 09:52:58;;;;;;;27.93;19.67;;;6.30;88.50;;;;;;5018868;28;20575;-83
2021/01/08 09:55:29;;;;;;;27.63;20.20;;;6.40;86.80;;;;;;5009052;28;20208;-84
2021/01/08 09:58:01;;;;;;;28.80;20.80;;;6.30;86.60;;;;;;5003441;28;20199;-84
2021/01/08 10:00:28;;;;;;;32.27;20.97;;;6.40;87.40;;;;;;5003616;28;20226;-84
2021/01/08 10:03:20;;;;;;;26.90;18.63;;;6.50;87.40;;;;;;5009412;28;20204;-84
2021/01/08 10:05:47;;;;;;;26.53;18.90;;;6.60;87.40;;;;;;5006265;28;20211;-85
2021/01/08 10:08:22;;;;;;;27.67;18.27;;;6.70;86.60;;;;;;5004217;28;20215;-84
2021/01/08 10:10:49;;;;;;;24.37;17.80;;;6.70;84.70;;;;;;5018099;28;20215;-85
2021/01/08 10:13:20;;;;;;;24.07;18.10;;;6.70;84.70;;;;;;4989540;28;20672;-84
2021/01/08 10:15:49;;;;;;;26.57;18.67;;;6.70;84.20;;;;;;5017633;28;20221;-85
2021/01/08 10:18:31;;;;;;;28.43;19.10;;;6.70;84.70;;;;;;5018102;28;20224;-84
2021/01/08 10:21:09;;;;;;;27.17;19.33;;;6.80;84.20;;;;;;5017493;28;20655;-84
2021/01/08 10:23:45;;;;;;;25.30;18.33;;;6.80;84.20;;;;;;5009410;28;20560;-84
2021/01/08 10:26:17;;;;;;;20.03;15.90;;;6.80;84.60;;;;;;5010324;28;20516;-84
2021/01/08 10:28:52;;;;;;;21.57;15.60;;;6.90;84.60;;;;;;5001430;28;20211;-84
2021/01/08 10:31:20;;;;;;;17.27;14.30;;;7.00;84.30;;;;;;5011333;28;20208;-84
2021/01/08 10:33:48;;;;;;;21.57;15.13;;;7.10;82.70;;;;;;5017854;28;20267;-84
2021/01/08 10:36:15;;;;;;;25.90;16.13;;;7.10;82.40;;;;;;5016813;28;20231;-84
2021/01/08 10:38:42;;;;;;;20.80;14.87;;;7.10;82.00;;;;;;4996441;28;20580;-84
2021/01/08 10:41:17;;;;;;;20.27;14.97;;;7.20;81.60;;;;;;5008085;28;20535;-83
2021/01/08 10:43:45;;;;;;;21.40;15.83;;;7.20;81.00;;;;;;5017293;28;20243;-84
2021/01/08 10:46:13;;;;;;;19.37;13.60;;;7.20;81.20;;;;;;5017489;28;20294;-85
2021/01/08 10:48:42;;;;;;;17.57;14.20;;;7.30;81.50;;;;;;5007952;28;20267;-83
2021/01/08 10:51:09;;;;;;;20.60;14.70;;;7.40;81.80;;;;;;5021227;28;20250;-84
2021/01/08 10:53:36;;;;;;;19.27;14.60;;;7.50;81.70;;;;;;5000725;28;20297;-84
2021/01/08 10:56:04;;;;;;;17.07;12.33;;;7.70;81.80;;;;;;5001217;28;20298;-84
2021/01/08 10:58:33;;;;;;;14.50;11.93;;;7.70;80.50;;;;;;4999827;28;20317;-84
2021/01/08 11:01:01;;;;;;;14.87;11.43;;;7.80;78.80;;;;;;5000398;28;20204;-85
2021/01/08 11:03:28;;;;;;;17.17;10.70;;;7.80;79.40;;;;;;5000650;28;20219;-84
2021/01/08 11:05:55;;;;;;;14.13;10.37;;;7.90;79.60;;;;;;4999962;28;20244;-85
2021/01/08 11:08:21;;;;;;;15.10;11.97;;;8.00;79.60;;;;;;5015840;28;20589;-85
2021/01/08 11:10:49;;;;;;;13.30;10.80;;;8.10;79.10;;;;;;4999315;28;20648;-83
2021/01/08 11:13:16;;;;;;;14.83;11.60;;;8.20;77.10;;;;;;4997942;28;20227;-83
2021/01/08 11:15:42;;;;;;;12.97;10.67;;;8.10;76.10;;;;;;5000337;28;20514;-83
2021/01/08 11:18:10;;;;;;;15.10;11.17;;;8.10;77.10;;;;;;5016479;28;20247;-84
2021/01/08 11:20:36;;;;;;;15.70;11.13;;;8.10;77.30;;;;;;5005260;28;20203;-84
2021/01/08 11:23:04;;;;;;;14.93;11.17;;;8.10;77.50;;;;;;5016486;28;20223;-83
2021/01/08 11:25:31;;;;;;;13.97;10.67;;;8.10;75.60;;;;;;4998664;28;20238;-84
2021/01/08 11:27:58;;;;;;;14.37;11.00;;;8.10;76.40;;;;;;5017757;28;20223;-84
2021/01/08 11:30:25;;;;;;;12.27;10.40;;;8.10;76.90;;;;;;5015476;28;20291;-84
2021/01/08 11:32:53;;;;;;;12.10;9.63;;;8.20;75.10;;;;;;5005896;28;20208;-85
2021/01/08 11:35:20;;;;;;;12.73;10.10;;;8.20;74.70;;;;;;5017056;28;20207;-85
2021/01/08 11:37:47;;;;;;;13.93;10.17;;;8.40;75.50;;;;;;5000374;28;20218;-82
2021/01/08 11:40:15;;;;;;;12.97;10.33;;;8.60;75.40;;;;;;5016171;28;20228;-83
2021/01/08 11:42:42;;;;;;;17.80;9.63;;;8.80;75.40;;;;;;5012359;28;20327;-85
2021/01/08 11:45:09;;;;;;;11.63;9.20;;;8.90;74.20;;;;;;5017542;28;20222;-83
2021/01/08 11:47:36;;;;;;;14.17;10.17;;;8.90;73.00;;;;;;5000809;28;20650;-84
2021/01/08 11:50:05;;;;;;;13.33;9.83;;;8.90;73.90;;;;;;5000000;28;20212;-83
2021/01/08 11:52:32;;;;;;;13.07;9.87;;;8.90;72.80;;;;;;5016212;28;20214;-84
2021/01/08 11:54:59;;;;;;;13.77;10.67;;;8.70;72.40;;;;;;5001473;28;20220;-84
2021/01/08 11:57:26;;;;;;;13.47;9.43;;;8.60;73.20;;;;;;5015540;28;20527;-83
2021/01/08 11:59:53;;;;;;;13.43;9.70;;;8.40;73.10;;;;;;4998009;28;20227;-84
2021/01/08 12:02:23;;;;;;;13.33;10.40;;;8.30;73.10;;;;;;4995301;28;20595;-84
2021/01/08 12:04:49;;;;;;;11.77;9.67;;;8.20;74.10;;;;;;5015972;28;20247;-82
2021/01/08 12:07:16;;;;;;;13.50;10.83;;;8.30;74.40;;;;;;5017555;28;20294;-84
2021/01/08 12:09:43;;;;;;;14.97;11.53;;;8.30;75.00;;;;;;5016800;28;20207;-83
2021/01/08 12:12:10;;;;;;;13.97;10.37;;;8.40;75.80;;;;;;5001939;28;20215;-83
2021/01/08 12:14:37;;;;;;;11.97;9.70;;;8.50;75.80;;;;;;5017538;28;20306;-83
2021/01/08 12:17:09;;;;;;;10.83;8.57;;;8.50;75.80;;;;;;5001883;28;20211;-84
2021/01/08 12:19:37;;;;;;;12.27;10.73;;;8.50;75.50;;;;;;5017856;28;20235;-84
2021/01/08 12:22:04;;;;;;;15.20;11.00;;;8.50;75.90;;;;;;5018117;28;20216;-83
2021/01/08 12:24:32;;;;;;;14.13;10.83;;;8.50;76.50;;;;;;5016955;28;20619;-83
2021/01/08 12:26:59;;;;;;;11.57;10.13;;;8.50;76.60;;;;;;5001499;28;20208;-83
2021/01/08 12:29:33;;;;;;;12.73;8.70;;;8.50;76.70;;;;;;5018782;28;20219;-82
2021/01/08 12:32:06;;;;;;;11.97;8.83;;;8.50;76.10;;;;;;5001746;28;20215;-83
2021/01/08 12:34:37;;;;;;;9.30;7.23;;;8.50;75.60;;;;;;5001446;28;20212;-83
2021/01/08 12:37:04;;;;;;;9.37;8.37;;;8.50;74.90;;;;;;5018884;28;20216;-83
2021/01/08 12:39:34;;;;;;;9.57;7.40;;;8.50;74.80;;;;;;5020078;28;20323;-83
2021/01/08 12:42:03;;;;;;;8.97;7.53;;;8.50;75.00;;;;;;5004136;28;20551;-83
2021/01/08 12:44:30;;;;;;;8.97;7.67;;;8.50;74.40;;;;;;5017734;28;20544;-84
2021/01/08 12:47:01;;;;;;;16.27;8.47;;;8.50;74.10;;;;;;5011367;28;20242;-83
2021/01/08 12:49:30;;;;;;;11.60;8.87;;;8.70;74.00;;;;;;5003297;28;20251;-84
2021/01/08 12:51:58;;;;;;;10.30;8.40;;;8.70;74.10;;;;;;5004610;28;20595;-81
2021/01/08 12:54:24;;;;;;;12.03;8.57;;;8.90;73.60;;;;;;5002824;28;20216;-82
2021/01/08 12:56:53;;;;;;;10.73;7.73;;;9.00;72.10;;;;;;5004028;28;20298;-84
2021/01/08 12:59:19;;;;;;;11.43;9.07;;;9.00;72.00;;;;;;5015337;28;20307;-83
2021/01/08 13:01:46;;;;;;;13.43;9.37;;;9.10;71.90;;;;;;4996786;28;20218;-83
2021/01/08 13:04:13;;;;;;;13.33;8.67;;;9.10;72.30;;;;;;5015757;28;20461;-84
2021/01/08 13:06:41;;;;;;;10.97;8.80;;;9.20;71.80;;;;;;5022179;28;20211;-83
2021/01/08 13:09:08;;;;;;;11.40;9.60;;;9.20;71.50;;;;;;5004818;28;20207;-84
2021/01/08 13:11:37;;;;;;;12.80;10.23;;;9.20;71.70;;;;;;5020112;28;20207;-83
2021/01/08 13:14:04;;;;;;;9.03;8.00;;;9.20;72.10;;;;;;5018978;28;20229;-82
2021/01/08 13:16:31;;;;;;;10.97;8.83;;;9.20;72.40;;;;;;5019630;28;20318;-83